^^
Saratoga-Weather Station Historical Data
Daily Summary for March 8, 2020 Units:  English    Metric   Both
Daily Weekly Monthly Yearly Custom
  High: Low: Average:
Temperature: 56.5 °F 41.2 °F 47.7 °F
Dew Point: 51.4 °F 40.1 °F 45.5 °F
Humidity: 97% 80% 93%
Wind Speed: 2.9mph 0mph 0.1mph
Wind Gust: 3mph - -
Wind- - East
Pressure: 30.2 in 30.2 in -
Precipitation: 0 in    
Historical Graphs
 
 
Tabular Data for March 8, 2020
Time Temperature Dew Point Pressure Wind Wind Speed Wind Gust Humidity Rainfall Rate (Hourly) solar
00:04 42.6 °F 41.5 °F 30.2 in Calm     96% 0 in 0 W/m2
00:09 42.6 °F 41.5 °F 30.2 in Calm     96% 0 in 0 W/m2
00:14 42.6 °F 41.5 °F 30.2 in Calm     96% 0 in 0 W/m2
00:19 42.4 °F 41.4 °F 30.2 in Calm     96% 0 in 0 W/m2
00:24 42.4 °F 41.4 °F 30.2 in Calm     96% 0 in 0 W/m2
00:29 42.4 °F 41.4 °F 30.2 in Calm     96% 0 in 0 W/m2
00:34 42.4 °F 41.4 °F 30.2 in Calm     96% 0 in 0 W/m2
00:39 42.6 °F 41.5 °F 30.2 in Calm     96% 0 in 0 W/m2
00:44 42.6 °F 41.5 °F 30.2 in Calm     96% 0 in 0 W/m2
00:49 42.8 °F 41.7 °F 30.2 in Calm     96% 0 in 0 W/m2
00:54 42.8 °F 41.7 °F 30.2 in Calm     96% 0 in 0 W/m2
00:59 42.8 °F 41.7 °F 30.2 in Calm     96% 0 in 0 W/m2
01:04 43 °F 41.9 °F 30.2 in Calm     96% 0 in 0 W/m2
01:09 43 °F 41.9 °F 30.2 in Calm     96% 0 in 0 W/m2
01:14 43 °F 41.9 °F 30.2 in Calm     96% 0 in 0 W/m2
01:19 43 °F 41.9 °F 30.2 in Calm     96% 0 in 0 W/m2
01:25 43.2 °F 42.1 °F 30.2 in Calm     96% 0 in 0 W/m2
01:30 43.2 °F 42.1 °F 30.2 in Calm     96% 0 in 0 W/m2
01:35 43.2 °F 42.1 °F 30.2 in Calm     96% 0 in 0 W/m2
01:40 43.2 °F 42.1 °F 30.2 in Calm     96% 0 in 0 W/m2
01:45 43 °F 41.9 °F 30.2 in Calm     96% 0 in 0 W/m2
01:50 43 °F 41.9 °F 30.2 in Calm     96% 0 in 0 W/m2
01:55 43 °F 41.9 °F 30.2 in Calm     96% 0 in 0 W/m2
02:00 42.8 °F 41.7 °F 30.2 in Calm     96% 0 in 0 W/m2
02:05 42.6 °F 41.5 °F 30.2 in Calm     96% 0 in 0 W/m2
02:10 42.6 °F 41.5 °F 30.2 in Calm     96% 0 in 0 W/m2
02:15 42.4 °F 41.4 °F 30.2 in Calm     96% 0 in 0 W/m2
02:20 42.3 °F 41.2 °F 30.2 in Calm     96% 0 in 0 W/m2
02:25 42.3 °F 41.2 °F 30.2 in Calm     96% 0 in 0 W/m2
02:30 42.1 °F 41 °F 30.2 in Calm     96% 0 in 0 W/m2
02:35 42.1 °F 41 °F 30.2 in Calm     96% 0 in 0 W/m2
02:40 41.9 °F 40.8 °F 30.2 in Calm     96% 0 in 0 W/m2
02:45 41.7 °F 40.6 °F 30.2 in Calm     96% 0 in 0 W/m2
02:50 41.7 °F 40.6 °F 30.2 in Calm     96% 0 in 0 W/m2
02:55 41.7 °F 40.6 °F 30.2 in Calm     96% 0 in 0 W/m2
03:00 41.7 °F 40.6 °F 30.2 in Calm     96% 0 in 0 W/m2
03:05 41.5 °F 40.5 °F 30.2 in Calm     96% 0 in 0 W/m2
03:10 41.5 °F 40.5 °F 30.2 in Calm     96% 0 in 0 W/m2
03:15 41.5 °F 40.5 °F 30.2 in Calm     96% 0 in 0 W/m2
03:20 41.4 °F 40.3 °F 30.2 in Calm     96% 0 in 0 W/m2
03:25 41.4 °F 40.3 °F 30.2 in Calm     96% 0 in 0 W/m2
03:30 41.4 °F 40.3 °F 30.2 in Calm     96% 0 in 0 W/m2
03:35 41.4 °F 40.3 °F 30.2 in Calm     96% 0 in 0 W/m2
03:40 41.4 °F 40.3 °F 30.2 in Calm     96% 0 in 0 W/m2
03:45 41.2 °F 40.1 °F 30.2 in Calm     96% 0 in 0 W/m2
03:50 41.2 °F 40.1 °F 30.2 in Calm     96% 0 in 0 W/m2
03:55 41.2 °F 40.1 °F 30.2 in Calm     96% 0 in 0 W/m2
04:00 41.2 °F 40.1 °F 30.2 in Calm     96% 0 in 0 W/m2
04:05 41.4 °F 40.3 °F 30.2 in Calm     96% 0 in 0 W/m2
04:10 41.4 °F 40.3 °F 30.2 in Calm     96% 0 in 0 W/m2
04:15 41.5 °F 40.5 °F 30.2 in Calm     96% 0 in 0 W/m2
04:20 41.5 °F 40.5 °F 30.2 in Calm     96% 0 in 0 W/m2
04:25 41.5 °F 40.5 °F 30.2 in Calm     96% 0 in 0 W/m2
04:30 41.7 °F 41 °F 30.2 in Calm     97% 0 in 0 W/m2
04:35 41.7 °F 41 °F 30.2 in Calm     97% 0 in 0 W/m2
04:40 41.9 °F 41.2 °F 30.2 in Calm     97% 0 in 0 W/m2
04:45 41.9 °F 41.2 °F 30.2 in Calm     97% 0 in 0 W/m2
04:50 42.1 °F 41.4 °F 30.2 in Calm     97% 0 in 0 W/m2
04:55 42.1 °F 41.4 °F 30.2 in Calm     97% 0 in 0 W/m2
05:00 42.3 °F 41.5 °F 30.2 in Calm     97% 0 in 0 W/m2
05:05 42.3 °F 41.5 °F 30.2 in Calm     97% 0 in 0 W/m2
05:11 42.4 °F 41.7 °F 30.2 in Calm     97% 0 in 0 W/m2
05:16 42.4 °F 41.7 °F 30.2 in Calm     97% 0 in 0 W/m2
05:21 42.4 °F 41.7 °F 30.2 in Calm     97% 0 in 0 W/m2
05:26 42.4 °F 41.7 °F 30.2 in Calm     97% 0 in 0 W/m2
05:31 42.3 °F 41.5 °F 30.2 in Calm     97% 0 in 0 W/m2
05:36 42.3 °F 41.5 °F 30.2 in Calm     97% 0 in 0 W/m2
05:41 42.3 °F 41.2 °F 30.2 in Calm     96% 0 in 0 W/m2
05:46 42.3 °F 41.2 °F 30.2 in Calm     96% 0 in 0 W/m2
05:51 42.3 °F 41.5 °F 30.2 in Calm     97% 0 in 0 W/m2
05:56 42.3 °F 41.5 °F 30.2 in Calm     97% 0 in 0 W/m2
06:01 42.4 °F 41.7 °F 30.2 in Calm     97% 0 in 0 W/m2
06:06 42.4 °F 41.7 °F 30.2 in Calm     97% 0 in 0 W/m2
06:11 42.4 °F 41.7 °F 30.2 in Calm     97% 0 in 0 W/m2
06:16 42.3 °F 41.5 °F 30.2 in Calm     97% 0 in 0 W/m2
06:21 42.3 °F 41.5 °F 30.2 in Calm     97% 0 in 0 W/m2
06:26 42.3 °F 41.5 °F 30.2 in Calm     97% 0 in 0 W/m2
06:31 42.3 °F 41.5 °F 30.2 in Calm     97% 0 in 0 W/m2
06:36 42.3 °F 41.5 °F 30.2 in Calm     97% 0 in 0 W/m2
06:41 42.3 °F 41.5 °F 30.2 in Calm     97% 0 in 0 W/m2
06:46 42.3 °F 41.5 °F 30.2 in Calm     97% 0 in 0 W/m2
06:51 42.3 °F 41.5 °F 30.2 in Calm     97% 0 in 0 W/m2
06:56 42.3 °F 41.5 °F 30.2 in Calm     97% 0 in 0 W/m2
07:01 42.3 °F 41.5 °F 30.2 in Calm     97% 0 in 0 W/m2
07:06 42.3 °F 41.5 °F 30.2 in Calm     97% 0 in 0 W/m2
07:11 42.1 °F 41.4 °F 30.2 in Calm     97% 0 in 0 W/m2
07:16 42.1 °F 41.4 °F 30.2 in Calm     97% 0 in 0 W/m2
07:21 42.1 °F 41.4 °F 30.2 in Calm     97% 0 in 0 W/m2
07:26 42.1 °F 41.4 °F 30.2 in Calm     97% 0 in 0 W/m2
07:31 41.7 °F 41 °F 30.2 in Calm     97% 0 in 0 W/m2
07:36 41.7 °F 41 °F 30.2 in Calm     97% 0 in 0 W/m2
07:41 41.7 °F 41 °F 30.2 in Calm     97% 0 in 0 W/m2
07:46 41.5 °F 40.5 °F 30.2 in Calm     96% 0 in 5 W/m2
07:51 41.5 °F 40.5 °F 30.2 in Calm     96% 0 in 7 W/m2
07:56 41.5 °F 40.5 °F 30.2 in Calm     96% 0 in 9 W/m2
08:01 41.4 °F 40.3 °F 30.2 in Calm     96% 0 in 11 W/m2
08:06 41.4 °F 40.6 °F 30.2 in Calm     97% 0 in 12 W/m2
08:11 41.4 °F 40.6 °F 30.2 in Calm     97% 0 in 14 W/m2
08:16 41.4 °F 40.6 °F 30.2 in Calm     97% 0 in 16 W/m2
08:21 41.5 °F 40.8 °F 30.2 in Calm     97% 0 in 19 W/m2
08:26 41.5 °F 40.8 °F 30.2 in Calm     97% 0 in 21 W/m2
08:31 41.5 °F 40.8 °F 30.2 in Calm     97% 0 in 25 W/m2
08:36 41.5 °F 40.8 °F 30.2 in Calm     97% 0 in 30 W/m2
08:41 41.7 °F 41 °F 30.2 in Calm     97% 0 in 33 W/m2
08:46 41.9 °F 41.2 °F 30.2 in Calm     97% 0 in 42 W/m2
08:51 42.1 °F 41.4 °F 30.2 in Calm     97% 0 in 51 W/m2
08:56 42.3 °F 41.5 °F 30.2 in Calm     97% 0 in 58 W/m2
09:01 42.4 °F 41.7 °F 30.2 in Calm     97% 0 in 65 W/m2
09:06 42.6 °F 41.9 °F 30.2 in Calm     97% 0 in 72 W/m2
09:11 43 °F 42.3 °F 30.2 in Calm     97% 0 in 76 W/m2
09:16 43.3 °F 42.6 °F 30.2 in Calm     97% 0 in 76 W/m2
09:21 43.7 °F 43 °F 30.2 in Calm     97% 0 in 74 W/m2
09:26 44.1 °F 43.3 °F 30.2 in Calm   1 mph 97% 0 in 74 W/m2
09:31 44.4 °F 43.7 °F 30.2 in Calm     97% 0 in 74 W/m2
09:36 44.6 °F 43.9 °F 30.2 in Calm   1 mph 97% 0 in 72 W/m2
09:41 44.8 °F 44.1 °F 30.2 in Calm   1 mph 97% 0 in 77 W/m2
09:46 45 °F 44.2 °F 30.2 in Calm     97% 0 in 81 W/m2
09:51 45 °F 44.2 °F 30.2 in Calm     97% 0 in 76 W/m2
09:56 45 °F 44.2 °F 30.2 in Calm   2 mph 97% 0 in 81 W/m2
10:01 45 °F 44.2 °F 30.2 in Calm     97% 0 in 79 W/m2
10:06 45.1 °F 44.4 °F 30.2 in ENE 2 mph 2 mph 97% 0 in 77 W/m2
10:11 45.3 °F 44.6 °F 30.2 in NE 0.9 mph 2 mph 97% 0 in 74 W/m2
10:16 45.7 °F 45 °F 30.2 in ENE 2 mph 3 mph 97% 0 in 76 W/m2
10:21 45.9 °F 45.1 °F 30.2 in Calm     97% 0 in 69 W/m2
10:26 46.2 °F 45.5 °F 30.2 in Calm     97% 0 in 69 W/m2
10:31 46.4 °F 45.7 °F 30.2 in Calm     97% 0 in 65 W/m2
10:36 46.6 °F 45.9 °F 30.2 in Calm     97% 0 in 67 W/m2
10:41 46.8 °F 45.7 °F 30.2 in Calm   1 mph 96% 0 in 65 W/m2
10:47 46.9 °F 45.9 °F 30.2 in Calm     96% 0 in 67 W/m2
10:52 47.1 °F 46 °F 30.2 in Calm     96% 0 in 74 W/m2
10:57 47.3 °F 46.2 °F 30.2 in ENE 0.9 mph 2 mph 96% 0 in 77 W/m2
11:02 47.8 °F 46.4 °F 30.2 in ENE 0.9 mph 2 mph 95% 0 in 83 W/m2
11:07 48.4 °F 46.9 °F 30.2 in Calm     95% 0 in 84 W/m2
11:12 48.7 °F 47.1 °F 30.2 in Calm   2 mph 94% 0 in 88 W/m2
11:17 49.3 °F 47.3 °F 30.2 in ENE 0.9 mph 2 mph 93% 0 in 79 W/m2
11:22 49.6 °F 47.5 °F 30.2 in East 0.9 mph 2 mph 92% 0 in 84 W/m2
11:27 50.2 °F 47.7 °F 30.2 in ENE 2 mph 2 mph 91% 0 in 88 W/m2
11:32 50.7 °F 47.8 °F 30.2 in ENE 0.9 mph 3 mph 90% 0 in 88 W/m2
11:37 51.1 °F 47.7 °F 30.2 in East 0.9 mph 1 mph 88% 0 in 88 W/m2
11:42 51.4 °F 47.7 °F 30.2 in Calm   3 mph 87% 0 in 72 W/m2
11:47 51.8 °F 48 °F 30.2 in ENE 0.9 mph 1 mph 87% 0 in 84 W/m2
11:52 52.2 °F 48 °F 30.2 in ENE 0.9 mph 3 mph 86% 0 in 91 W/m2
11:57 52.3 °F 48.2 °F 30.2 in Calm     86% 0 in 111 W/m2
12:02 52.5 °F 48.4 °F 30.2 in East 0.9 mph 2 mph 86% 0 in 104 W/m2
12:07 52.7 °F 48.6 °F 30.2 in Calm     86% 0 in 97 W/m2
12:12 52.9 °F 48.7 °F 30.2 in Calm     86% 0 in 93 W/m2
12:17 52.9 °F 48.7 °F 30.2 in Calm     86% 0 in 95 W/m2
12:22 52.9 °F 49.1 °F 30.2 in Calm     87% 0 in 95 W/m2
12:27 52.9 °F 48.7 °F 30.2 in East 0.9 mph 2 mph 86% 0 in 95 W/m2
12:32 53.2 °F 49.1 °F 30.2 in Calm   1 mph 86% 0 in 102 W/m2
12:37 53.4 °F 49.6 °F 30.2 in Calm     87% 0 in 114 W/m2
12:42 53.4 °F 49.3 °F 30.2 in Calm   3 mph 86% 0 in 125 W/m2
12:47 53.8 °F 49.5 °F 30.2 in Calm   1 mph 85% 0 in 127 W/m2
12:52 54.1 °F 49.5 °F 30.2 in Calm   2 mph 84% 0 in 125 W/m2
12:57 54.3 °F 49.3 °F 30.2 in East 0.9 mph 2 mph 83% 0 in 123 W/m2
13:02 54.7 °F 49.3 °F 30.2 in Calm   2 mph 82% 0 in 121 W/m2
13:07 54.9 °F 49.1 °F 30.2 in East 0.9 mph 3 mph 81% 0 in 123 W/m2
13:12 55 °F 49.3 °F 30.2 in ENE 0.9 mph 3 mph 81% 0 in 125 W/m2
13:17 55.2 °F 49.5 °F 30.2 in East 0.9 mph 2 mph 81% 0 in 134 W/m2
13:22 55.4 °F 49.6 °F 30.2 in Calm   1 mph 81% 0 in 146 W/m2
13:27 55.6 °F 49.8 °F 30.2 in Calm   2 mph 81% 0 in 158 W/m2
13:32 55.8 °F 50 °F 30.2 in NE 0.9 mph 3 mph 81% 0 in 162 W/m2
13:37 55.9 °F 50.2 °F 30.2 in East 2.9 mph 3 mph 81% 0 in 160 W/m2
13:42 56.1 °F 50.4 °F 30.2 in East 2 mph 2 mph 81% 0 in 156 W/m2
13:48 56.1 °F 50 °F 30.2 in ESE 0.9 mph 2 mph 80% 0 in 149 W/m2
13:53 56.3 °F 50.5 °F 30.2 in ESE 0.9 mph 2 mph 81% 0 in 144 W/m2
13:58 56.5 °F 50.4 °F 30.2 in East 0.9 mph 3 mph 80% 0 in 139 W/m2
14:03 56.5 °F 50.4 °F 30.2 in East 2 mph 2 mph 80% 0 in 139 W/m2
14:08 56.5 °F 50.4 °F 30.2 in ESE 2 mph 3 mph 80% 0 in 134 W/m2
14:13 56.5 °F 50.4 °F 30.2 in East 0.9 mph 2 mph 80% 0 in 127 W/m2
14:18 56.5 °F 50.4 °F 30.2 in Calm   1 mph 80% 0 in 118 W/m2
14:23 56.5 °F 50.4 °F 30.2 in ESE 0.9 mph 2 mph 80% 0 in 116 W/m2
14:28 56.1 °F 50 °F 30.2 in Calm   2 mph 80% 0 in 114 W/m2
14:33 56.1 °F 50 °F 30.2 in Calm   1 mph 80% 0 in 111 W/m2
14:38 56.1 °F 50.4 °F 30.2 in ENE 0.9 mph 2 mph 81% 0 in 107 W/m2
14:43 56.1 °F 50.4 °F 30.2 in Calm   1 mph 81% 0 in 102 W/m2
14:48 56.1 °F 50.4 °F 30.2 in Calm   1 mph 81% 0 in 98 W/m2
14:53 56.1 °F 50.4 °F 30.2 in Calm   2 mph 81% 0 in 95 W/m2
14:58 56.1 °F 50.4 °F 30.2 in Calm   1 mph 81% 0 in 86 W/m2
15:03 56.1 °F 50.4 °F 30.2 in East 0.9 mph 2 mph 81% 0 in 79 W/m2
15:08 56.1 °F 50.4 °F 30.2 in Calm   2 mph 81% 0 in 74 W/m2
15:13 56.1 °F 50.4 °F 30.2 in Calm     81% 0 in 69 W/m2
15:18 56.1 °F 50.7 °F 30.2 in Calm   2 mph 82% 0 in 65 W/m2
15:23 56.1 °F 50.7 °F 30.2 in East 0.9 mph 1 mph 82% 0 in 62 W/m2
15:28 56.1 °F 50.7 °F 30.2 in Calm   1 mph 82% 0 in 56 W/m2
15:33 55.9 °F 50.9 °F 30.2 in North 0.9 mph 1 mph 83% 0 in 53 W/m2
15:38 55.9 °F 50.9 °F 30.2 in Calm   1 mph 83% 0 in 49 W/m2
15:43 55.9 °F 51.3 °F 30.2 in Calm     84% 0 in 47 W/m2
15:48 55.9 °F 51.3 °F 30.2 in Calm   1 mph 84% 0 in 44 W/m2
15:53 55.8 °F 51.3 °F 30.2 in Calm     85% 0 in 42 W/m2
15:58 55.8 °F 51.3 °F 30.2 in Calm     85% 0 in 39 W/m2
16:03 55.6 °F 51.4 °F 30.2 in Calm     86% 0 in 32 W/m2
16:08 55.4 °F 51.3 °F 30.2 in Calm     86% 0 in 26 W/m2
16:13 55.2 °F 51.1 °F 30.2 in Calm     86% 0 in 25 W/m2
16:18 55 °F 50.9 °F 30.2 in Calm     86% 0 in 21 W/m2
16:23 55 °F 51.3 °F 30.2 in Calm   1 mph 87% 0 in 19 W/m2
16:28 54.9 °F 51.1 °F 30.2 in Calm   1 mph 87% 0 in 16 W/m2
16:33 54.7 °F 50.9 °F 30.2 in NNW 0.9 mph 1 mph 87% 0 in 14 W/m2
16:38 54.5 °F 50.7 °F 30.2 in Calm     87% 0 in 11 W/m2
16:43 54.3 °F 50.9 °F 30.2 in Calm   1 mph 88% 0 in 9 W/m2
16:48 54.1 °F 50.7 °F 30.2 in Calm     88% 0 in 7 W/m2
16:53 54.1 °F 50.7 °F 30.2 in Calm   1 mph 88% 0 in 5 W/m2
16:58 54 °F 50.5 °F 30.2 in Calm     88% 0 in 5 W/m2
17:03 53.8 °F 50.4 °F 30.2 in Calm     88% 0 in 0 W/m2
17:08 53.8 °F 50.4 °F 30.2 in Calm     88% 0 in 0 W/m2
17:13 53.4 °F 50.2 °F 30.2 in Calm     89% 0 in 0 W/m2
17:18 53.2 °F 50 °F 30.2 in Calm     89% 0 in 0 W/m2
17:23 53.2 °F 50 °F 30.2 in Calm     89% 0 in 0 W/m2
17:28 53.1 °F 50.2 °F 30.2 in Calm     90% 0 in 0 W/m2
17:33 52.9 °F 50 °F 30.2 in Calm     90% 0 in 0 W/m2
17:38 52.9 °F 50 °F 30.2 in Calm     90% 0 in 0 W/m2
17:43 52.5 °F 49.6 °F 30.2 in Calm     90% 0 in 0 W/m2
17:48 52.5 °F 50 °F 30.2 in Calm     91% 0 in 0 W/m2
17:53 52.3 °F 49.8 °F 30.2 in Calm     91% 0 in 0 W/m2
17:58 52.3 °F 49.8 °F 30.2 in Calm     91% 0 in 0 W/m2
18:03 52.2 °F 49.6 °F 30.2 in Calm     91% 0 in 0 W/m2
18:09 52 °F 49.5 °F 30.2 in Calm     91% 0 in 0 W/m2
18:14 52 °F 49.5 °F 30.2 in Calm     91% 0 in 0 W/m2
18:19 51.8 °F 49.3 °F 30.2 in Calm     91% 0 in 0 W/m2
18:24 51.6 °F 49.1 °F 30.2 in Calm     91% 0 in 0 W/m2
18:29 51.6 °F 49.5 °F 30.2 in Calm     92% 0 in 0 W/m2
18:34 51.4 °F 49.3 °F 30.2 in Calm   1 mph 92% 0 in 0 W/m2
18:39 51.4 °F 49.3 °F 30.2 in Calm     92% 0 in 0 W/m2
18:44 51.3 °F 49.1 °F 30.2 in Calm   1 mph 92% 0 in 0 W/m2
18:49 51.3 °F 49.1 °F 30.2 in Calm     92% 0 in 0 W/m2
18:54 51.1 °F 48.9 °F 30.2 in Calm     92% 0 in 0 W/m2
18:59 51.1 °F 48.9 °F 30.2 in Calm     92% 0 in 0 W/m2
19:04 50.9 °F 48.7 °F 30.2 in Calm     92% 0 in 0 W/m2
19:09 50.7 °F 48.6 °F 30.2 in Calm     92% 0 in 0 W/m2
19:14 50.7 °F 48.7 °F 30.2 in Calm     93% 0 in 0 W/m2
19:19 50.5 °F 48.6 °F 30.2 in Calm     93% 0 in 0 W/m2
19:24 50.4 °F 48.4 °F 30.2 in Calm     93% 0 in 0 W/m2
19:29 50.4 °F 48.4 °F 30.2 in Calm     93% 0 in 0 W/m2
19:34 50.4 °F 48.4 °F 30.2 in Calm     93% 0 in 0 W/m2
19:39 50.2 °F 48.2 °F 30.2 in Calm     93% 0 in 0 W/m2
19:44 50.2 °F 48.2 °F 30.2 in Calm     93% 0 in 0 W/m2
19:49 50 °F 48 °F 30.2 in Calm     93% 0 in 0 W/m2
19:54 50 °F 48.4 °F 30.2 in Calm     94% 0 in 0 W/m2
19:59 49.8 °F 48.2 °F 30.2 in Calm     94% 0 in 0 W/m2
20:04 49.8 °F 48.2 °F 30.2 in Calm     94% 0 in 0 W/m2
20:09 49.6 °F 48 °F 30.2 in Calm     94% 0 in 0 W/m2
20:14 49.6 °F 48 °F 30.2 in Calm     94% 0 in 0 W/m2
20:19 49.6 °F 48 °F 30.2 in Calm     94% 0 in 0 W/m2
20:24 49.5 °F 47.8 °F 30.2 in Calm     94% 0 in 0 W/m2
20:29 49.3 °F 47.7 °F 30.2 in Calm     94% 0 in 0 W/m2
20:34 49.3 °F 47.7 °F 30.2 in Calm     94% 0 in 0 W/m2
20:39 48.9 °F 47.3 °F 30.2 in Calm     94% 0 in 0 W/m2
20:44 48.9 °F 47.3 °F 30.2 in Calm     94% 0 in 0 W/m2
20:49 48.7 °F 47.1 °F 30.2 in Calm     94% 0 in 0 W/m2
20:54 48.7 °F 47.1 °F 30.2 in Calm   1 mph 94% 0 in 0 W/m2
20:59 48.6 °F 46.9 °F 30.2 in Calm     94% 0 in 0 W/m2
21:04 48.6 °F 46.9 °F 30.2 in Calm   1 mph 94% 0 in 0 W/m2
21:09 48.4 °F 46.8 °F 30.2 in Calm     94% 0 in 0 W/m2
21:14 48.4 °F 46.9 °F 30.2 in Calm     95% 0 in 0 W/m2
21:19 48.2 °F 46.8 °F 30.2 in Calm     95% 0 in 0 W/m2
21:24 48 °F 46.6 °F 30.2 in Calm     95% 0 in 0 W/m2
21:29 48 °F 46.6 °F 30.2 in Calm     95% 0 in 0 W/m2
21:34 47.8 °F 46.4 °F 30.2 in Calm     95% 0 in 0 W/m2
21:39 47.7 °F 46.2 °F 30.2 in Calm     95% 0 in 0 W/m2
21:44 47.7 °F 46.2 °F 30.2 in Calm     95% 0 in 0 W/m2
21:49 47.8 °F 46.4 °F 30.2 in Calm     95% 0 in 0 W/m2
21:54 47.8 °F 46.4 °F 30.2 in Calm     95% 0 in 0 W/m2
21:59 48 °F 46.9 °F 30.2 in Calm   1 mph 96% 0 in 0 W/m2
22:04 48.2 °F 47.1 °F 30.2 in Calm     96% 0 in 0 W/m2
22:09 48.4 °F 47.3 °F 30.2 in Calm   1 mph 96% 0 in 0 W/m2
22:14 48.4 °F 47.3 °F 30.2 in Calm     96% 0 in 0 W/m2
22:19 48.2 °F 46.8 °F 30.2 in Calm     95% 0 in 0 W/m2
22:24 48 °F 46.6 °F 30.2 in Calm     95% 0 in 0 W/m2
22:29 48 °F 46.6 °F 30.2 in Calm     95% 0 in 0 W/m2
22:34 47.8 °F 46.8 °F 30.2 in Calm     96% 0 in 0 W/m2
22:39 47.8 °F 46.8 °F 30.2 in Calm     96% 0 in 0 W/m2
22:44 47.8 °F 46.8 °F 30.2 in Calm     96% 0 in 0 W/m2
22:49 47.7 °F 46.6 °F 30.2 in Calm     96% 0 in 0 W/m2
22:54 47.7 °F 46.6 °F 30.2 in Calm     96% 0 in 0 W/m2
23:00 47.7 °F 46.6 °F 30.2 in Calm     96% 0 in 0 W/m2
23:05 47.7 °F 46.6 °F 30.2 in Calm     96% 0 in 0 W/m2
23:10 47.7 °F 46.6 °F 30.2 in Calm     96% 0 in 0 W/m2
23:15 47.7 °F 46.6 °F 30.2 in Calm     96% 0 in 0 W/m2
23:20 47.7 °F 46.6 °F 30.2 in Calm     96% 0 in 0 W/m2
23:25 47.7 °F 46.6 °F 30.2 in Calm     96% 0 in 0 W/m2
23:30 47.7 °F 46.6 °F 30.2 in Calm     96% 0 in 0 W/m2
23:35 47.7 °F 46.6 °F 30.2 in Calm     96% 0 in 0 W/m2
23:40 47.5 °F 46.4 °F 30.2 in Calm     96% 0 in 0 W/m2
23:45 47.3 °F 46.2 °F 30.2 in Calm     96% 0 in 0 W/m2
23:50 47.3 °F 46.2 °F 30.2 in Calm     96% 0 in 0 W/m2
23:55 47.1 °F 46 °F 30.2 in Calm     96% 0 in 0 W/m2
Juneau County Weather
Compliments of Weather Underground - 4 mb